sensor_id;sensor_type;location;lat;lon;timestamp;P1;durP1;ratioP1;P2;durP2;ratioP2
6282;SDS011;3174;53.486;9.568;2023-08-30T00:02:21;1.43;;;1.20;;
6282;SDS011;3174;53.486;9.568;2023-08-30T00:04:49;1.53;;;1.23;;
6282;SDS011;3174;53.486;9.568;2023-08-30T00:07:17;1.80;;;1.27;;
6282;SDS011;3174;53.486;9.568;2023-08-30T00:09:45;1.40;;;1.00;;
6282;SDS011;3174;53.486;9.568;2023-08-30T00:12:13;1.20;;;1.10;;
6282;SDS011;3174;53.486;9.568;2023-08-30T00:14:41;1.10;;;1.00;;
6282;SDS011;3174;53.486;9.568;2023-08-30T00:17:09;1.30;;;0.90;;
6282;SDS011;3174;53.486;9.568;2023-08-30T00:19:38;1.30;;;1.20;;
6282;SDS011;3174;53.486;9.568;2023-08-30T00:22:06;1.43;;;1.23;;
6282;SDS011;3174;53.486;9.568;2023-08-30T00:24:34;1.40;;;1.30;;
6282;SDS011;3174;53.486;9.568;2023-08-30T00:27:03;1.07;;;0.90;;
6282;SDS011;3174;53.486;9.568;2023-08-30T00:29:31;1.20;;;1.10;;
6282;SDS011;3174;53.486;9.568;2023-08-30T00:31:59;1.30;;;1.20;;
6282;SDS011;3174;53.486;9.568;2023-08-30T00:34:27;1.93;;;1.37;;
6282;SDS011;3174;53.486;9.568;2023-08-30T00:36:56;1.83;;;1.73;;
6282;SDS011;3174;53.486;9.568;2023-08-30T00:39:24;5.03;;;2.30;;
6282;SDS011;3174;53.486;9.568;2023-08-30T00:41:52;3.23;;;1.93;;
6282;SDS011;3174;53.486;9.568;2023-08-30T00:44:20;3.20;;;2.20;;
6282;SDS011;3174;53.486;9.568;2023-08-30T00:46:48;2.03;;;1.17;;
6282;SDS011;3174;53.486;9.568;2023-08-30T00:49:16;1.40;;;1.30;;
6282;SDS011;3174;53.486;9.568;2023-08-30T00:51:44;1.00;;;0.90;;
6282;SDS011;3174;53.486;9.568;2023-08-30T00:54:14;1.63;;;1.23;;
6282;SDS011;3174;53.486;9.568;2023-08-30T00:56:43;1.33;;;1.17;;
6282;SDS011;3174;53.486;9.568;2023-08-30T00:59:13;0.90;;;0.90;;
6282;SDS011;3174;53.486;9.568;2023-08-30T01:01:41;5.67;;;1.43;;
6282;SDS011;3174;53.486;9.568;2023-08-30T01:04:09;1.13;;;1.03;;
6282;SDS011;3174;53.486;9.568;2023-08-30T01:06:37;1.20;;;1.10;;
6282;SDS011;3174;53.486;9.568;2023-08-30T01:09:05;3.03;;;1.03;;
6282;SDS011;3174;53.486;9.568;2023-08-30T01:11:36;2.10;;;1.30;;
6282;SDS011;3174;53.486;9.568;2023-08-30T01:14:08;1.57;;;1.27;;
6282;SDS011;3174;53.486;9.568;2023-08-30T01:16:41;2.10;;;1.40;;
6282;SDS011;3174;53.486;9.568;2023-08-30T01:19:13;3.40;;;2.80;;
6282;SDS011;3174;53.486;9.568;2023-08-30T01:21:48;2.93;;;2.10;;
6282;SDS011;3174;53.486;9.568;2023-08-30T01:24:26;1.20;;;1.10;;
6282;SDS011;3174;53.486;9.568;2023-08-30T01:27:09;2.20;;;1.40;;
6282;SDS011;3174;53.486;9.568;2023-08-30T01:29:38;2.77;;;1.30;;
6282;SDS011;3174;53.486;9.568;2023-08-30T01:32:10;1.50;;;1.10;;
6282;SDS011;3174;53.486;9.568;2023-08-30T01:34:38;1.13;;;1.03;;
6282;SDS011;3174;53.486;9.568;2023-08-30T01:37:07;1.60;;;1.30;;
6282;SDS011;3174;53.486;9.568;2023-08-30T01:39:36;1.93;;;1.70;;
6282;SDS011;3174;53.486;9.568;2023-08-30T01:42:04;1.93;;;1.60;;
6282;SDS011;3174;53.486;9.568;2023-08-30T01:44:35;1.23;;;1.13;;
6282;SDS011;3174;53.486;9.568;2023-08-30T01:47:03;1.13;;;0.97;;
6282;SDS011;3174;53.486;9.568;2023-08-30T01:49:32;1.20;;;1.10;;
6282;SDS011;3174;53.486;9.568;2023-08-30T01:52:03;1.40;;;1.20;;
6282;SDS011;3174;53.486;9.568;2023-08-30T01:54:32;2.03;;;1.20;;
6282;SDS011;3174;53.486;9.568;2023-08-30T01:57:00;1.30;;;1.20;;
6282;SDS011;3174;53.486;9.568;2023-08-30T01:59:29;1.50;;;1.20;;
6282;SDS011;3174;53.486;9.568;2023-08-30T02:01:58;3.63;;;3.00;;
6282;SDS011;3174;53.486;9.568;2023-08-30T02:04:26;4.03;;;3.13;;
6282;SDS011;3174;53.486;9.568;2023-08-30T02:06:57;2.20;;;1.57;;
6282;SDS011;3174;53.486;9.568;2023-08-30T02:09:28;1.77;;;1.47;;
6282;SDS011;3174;53.486;9.568;2023-08-30T02:11:59;1.70;;;1.30;;
6282;SDS011;3174;53.486;9.568;2023-08-30T02:14:28;1.87;;;1.20;;
6282;SDS011;3174;53.486;9.568;2023-08-30T02:16:59;1.77;;;1.23;;
6282;SDS011;3174;53.486;9.568;2023-08-30T02:19:27;1.70;;;1.60;;
6282;SDS011;3174;53.486;9.568;2023-08-30T02:21:55;2.43;;;2.10;;
6282;SDS011;3174;53.486;9.568;2023-08-30T02:24:23;2.07;;;1.67;;
6282;SDS011;3174;53.486;9.568;2023-08-30T02:26:51;2.40;;;1.70;;
6282;SDS011;3174;53.486;9.568;2023-08-30T02:29:19;3.93;;;1.60;;
6282;SDS011;3174;53.486;9.568;2023-08-30T02:31:47;1.47;;;1.37;;
6282;SDS011;3174;53.486;9.568;2023-08-30T02:34:16;2.00;;;1.40;;
6282;SDS011;3174;53.486;9.568;2023-08-30T02:36:44;2.00;;;1.33;;
6282;SDS011;3174;53.486;9.568;2023-08-30T02:39:13;2.13;;;1.40;;
6282;SDS011;3174;53.486;9.568;2023-08-30T02:41:41;2.50;;;1.60;;
6282;SDS011;3174;53.486;9.568;2023-08-30T02:44:10;1.27;;;1.13;;
6282;SDS011;3174;53.486;9.568;2023-08-30T02:46:38;1.57;;;1.27;;
6282;SDS011;3174;53.486;9.568;2023-08-30T02:49:08;1.83;;;1.40;;
6282;SDS011;3174;53.486;9.568;2023-08-30T02:51:39;1.60;;;1.20;;
6282;SDS011;3174;53.486;9.568;2023-08-30T02:54:07;3.63;;;2.37;;
6282;SDS011;3174;53.486;9.568;2023-08-30T02:56:33;1.63;;;1.40;;
6282;SDS011;3174;53.486;9.568;2023-08-30T02:59:01;3.00;;;2.37;;
6282;SDS011;3174;53.486;9.568;2023-08-30T03:01:30;4.57;;;2.20;;
6282;SDS011;3174;53.486;9.568;2023-08-30T03:03:58;2.27;;;1.63;;
6282;SDS011;3174;53.486;9.568;2023-08-30T03:06:26;1.90;;;1.67;;
6282;SDS011;3174;53.486;9.568;2023-08-30T03:08:55;4.50;;;3.23;;
6282;SDS011;3174;53.486;9.568;2023-08-30T03:11:23;5.23;;;3.30;;
6282;SDS011;3174;53.486;9.568;2023-08-30T03:13:53;7.90;;;5.30;;
6282;SDS011;3174;53.486;9.568;2023-08-30T03:16:21;6.10;;;3.17;;
6282;SDS011;3174;53.486;9.568;2023-08-30T03:18:49;6.43;;;3.90;;
6282;SDS011;3174;53.486;9.568;2023-08-30T03:21:17;5.20;;;3.70;;
6282;SDS011;3174;53.486;9.568;2023-08-30T03:23:45;3.27;;;2.70;;
6282;SDS011;3174;53.486;9.568;2023-08-30T03:26:15;7.40;;;3.97;;
6282;SDS011;3174;53.486;9.568;2023-08-30T03:28:44;2.37;;;1.60;;
6282;SDS011;3174;53.486;9.568;2023-08-30T03:31:12;7.07;;;4.73;;
6282;SDS011;3174;53.486;9.568;2023-08-30T03:33:41;2.30;;;1.77;;
6282;SDS011;3174;53.486;9.568;2023-08-30T03:36:11;2.63;;;1.40;;
6282;SDS011;3174;53.486;9.568;2023-08-30T03:38:40;2.20;;;1.83;;
6282;SDS011;3174;53.486;9.568;2023-08-30T03:41:08;2.47;;;2.27;;
6282;SDS011;3174;53.486;9.568;2023-08-30T03:43:38;4.77;;;3.97;;
6282;SDS011;3174;53.486;9.568;2023-08-30T03:46:06;5.20;;;3.37;;
6282;SDS011;3174;53.486;9.568;2023-08-30T03:48:36;6.67;;;4.07;;
6282;SDS011;3174;53.486;9.568;2023-08-30T03:51:04;5.03;;;4.03;;
6282;SDS011;3174;53.486;9.568;2023-08-30T03:53:32;6.77;;;3.93;;
6282;SDS011;3174;53.486;9.568;2023-08-30T03:55:59;6.13;;;3.60;;
6282;SDS011;3174;53.486;9.568;2023-08-30T03:58:27;4.10;;;3.00;;
6282;SDS011;3174;53.486;9.568;2023-08-30T04:00:57;7.90;;;4.20;;
6282;SDS011;3174;53.486;9.568;2023-08-30T04:03:25;5.80;;;3.67;;
6282;SDS011;3174;53.486;9.568;2023-08-30T04:05:57;5.60;;;4.30;;
6282;SDS011;3174;53.486;9.568;2023-08-30T04:08:25;2.77;;;1.93;;
6282;SDS011;3174;53.486;9.568;2023-08-30T04:10:53;4.47;;;3.60;;
6282;SDS011;3174;53.486;9.568;2023-08-30T04:13:21;2.97;;;2.13;;
6282;SDS011;3174;53.486;9.568;2023-08-30T04:15:49;2.53;;;2.07;;
6282;SDS011;3174;53.486;9.568;2023-08-30T04:18:18;5.37;;;4.20;;
6282;SDS011;3174;53.486;9.568;2023-08-30T04:20:46;5.77;;;4.23;;
6282;SDS011;3174;53.486;9.568;2023-08-30T04:23:15;7.17;;;2.83;;
6282;SDS011;3174;53.486;9.568;2023-08-30T04:25:43;4.30;;;3.07;;
6282;SDS011;3174;53.486;9.568;2023-08-30T04:28:11;3.67;;;2.60;;
6282;SDS011;3174;53.486;9.568;2023-08-30T04:30:39;6.83;;;4.83;;
6282;SDS011;3174;53.486;9.568;2023-08-30T04:33:07;4.63;;;3.03;;
6282;SDS011;3174;53.486;9.568;2023-08-30T04:35:37;6.20;;;4.10;;
6282;SDS011;3174;53.486;9.568;2023-08-30T04:38:05;6.50;;;4.50;;
6282;SDS011;3174;53.486;9.568;2023-08-30T04:40:34;5.23;;;3.93;;
6282;SDS011;3174;53.486;9.568;2023-08-30T04:43:02;9.60;;;5.00;;
6282;SDS011;3174;53.486;9.568;2023-08-30T04:45:30;7.73;;;4.77;;
6282;SDS011;3174;53.486;9.568;2023-08-30T04:47:58;4.33;;;3.40;;
6282;SDS011;3174;53.486;9.568;2023-08-30T04:50:26;9.40;;;5.20;;
6282;SDS011;3174;53.486;9.568;2023-08-30T04:52:55;3.57;;;3.03;;
6282;SDS011;3174;53.486;9.568;2023-08-30T04:55:23;4.30;;;3.33;;
6282;SDS011;3174;53.486;9.568;2023-08-30T04:57:51;6.10;;;4.47;;
6282;SDS011;3174;53.486;9.568;2023-08-30T05:00:19;5.60;;;3.53;;
6282;SDS011;3174;53.486;9.568;2023-08-30T05:02:47;6.27;;;4.03;;
6282;SDS011;3174;53.486;9.568;2023-08-30T05:05:16;5.27;;;3.73;;
6282;SDS011;3174;53.486;9.568;2023-08-30T05:07:44;5.70;;;4.20;;
6282;SDS011;3174;53.486;9.568;2023-08-30T05:10:13;6.70;;;4.50;;
6282;SDS011;3174;53.486;9.568;2023-08-30T05:12:42;5.97;;;4.60;;
6282;SDS011;3174;53.486;9.568;2023-08-30T05:15:14;3.40;;;2.60;;
6282;SDS011;3174;53.486;9.568;2023-08-30T05:17:42;8.70;;;4.23;;
6282;SDS011;3174;53.486;9.568;2023-08-30T05:20:10;4.87;;;2.50;;
6282;SDS011;3174;53.486;9.568;2023-08-30T05:22:38;7.60;;;4.00;;
6282;SDS011;3174;53.486;9.568;2023-08-30T05:25:06;6.30;;;4.30;;
6282;SDS011;3174;53.486;9.568;2023-08-30T05:27:36;6.63;;;4.17;;
6282;SDS011;3174;53.486;9.568;2023-08-30T05:30:04;6.33;;;4.20;;
6282;SDS011;3174;53.486;9.568;2023-08-30T05:32:33;5.73;;;4.13;;
6282;SDS011;3174;53.486;9.568;2023-08-30T05:35:01;4.10;;;3.10;;
6282;SDS011;3174;53.486;9.568;2023-08-30T05:37:30;6.27;;;4.47;;
6282;SDS011;3174;53.486;9.568;2023-08-30T05:39:58;4.00;;;2.67;;
6282;SDS011;3174;53.486;9.568;2023-08-30T05:42:26;7.10;;;4.87;;
6282;SDS011;3174;53.486;9.568;2023-08-30T05:44:55;5.50;;;3.23;;
6282;SDS011;3174;53.486;9.568;2023-08-30T05:47:23;7.13;;;4.67;;
6282;SDS011;3174;53.486;9.568;2023-08-30T05:49:51;6.20;;;5.20;;
6282;SDS011;3174;53.486;9.568;2023-08-30T05:52:19;7.57;;;5.40;;
6282;SDS011;3174;53.486;9.568;2023-08-30T05:54:47;5.97;;;4.60;;
6282;SDS011;3174;53.486;9.568;2023-08-30T05:57:15;5.53;;;4.07;;
6282;SDS011;3174;53.486;9.568;2023-08-30T05:59:43;3.60;;;2.80;;
6282;SDS011;3174;53.486;9.568;2023-08-30T06:02:12;5.67;;;4.40;;
6282;SDS011;3174;53.486;9.568;2023-08-30T06:04:40;6.60;;;4.93;;
6282;SDS011;3174;53.486;9.568;2023-08-30T06:07:08;6.50;;;4.90;;
6282;SDS011;3174;53.486;9.568;2023-08-30T06:09:36;8.33;;;5.33;;
6282;SDS011;3174;53.486;9.568;2023-08-30T06:12:04;7.53;;;5.37;;
6282;SDS011;3174;53.486;9.568;2023-08-30T06:14:33;6.87;;;4.00;;
6282;SDS011;3174;53.486;9.568;2023-08-30T06:17:01;7.30;;;5.27;;
6282;SDS011;3174;53.486;9.568;2023-08-30T06:19:30;7.87;;;4.80;;
6282;SDS011;3174;53.486;9.568;2023-08-30T06:21:58;3.67;;;2.83;;
6282;SDS011;3174;53.486;9.568;2023-08-30T06:24:26;6.63;;;5.17;;
6282;SDS011;3174;53.486;9.568;2023-08-30T06:26:54;7.30;;;5.27;;
6282;SDS011;3174;53.486;9.568;2023-08-30T06:29:22;9.77;;;6.20;;
6282;SDS011;3174;53.486;9.568;2023-08-30T06:31:50;4.87;;;3.37;;
6282;SDS011;3174;53.486;9.568;2023-08-30T06:34:18;7.63;;;5.67;;
6282;SDS011;3174;53.486;9.568;2023-08-30T06:36:48;5.00;;;3.73;;
6282;SDS011;3174;53.486;9.568;2023-08-30T06:39:16;7.57;;;5.70;;
6282;SDS011;3174;53.486;9.568;2023-08-30T06:41:45;10.50;;;6.03;;
6282;SDS011;3174;53.486;9.568;2023-08-30T06:44:13;10.13;;;5.87;;
6282;SDS011;3174;53.486;9.568;2023-08-30T06:46:42;9.70;;;6.77;;
6282;SDS011;3174;53.486;9.568;2023-08-30T06:49:10;5.40;;;4.10;;
6282;SDS011;3174;53.486;9.568;2023-08-30T06:51:37;6.97;;;4.53;;
6282;SDS011;3174;53.486;9.568;2023-08-30T06:54:07;7.50;;;5.77;;
6282;SDS011;3174;53.486;9.568;2023-08-30T06:56:35;9.13;;;6.30;;
6282;SDS011;3174;53.486;9.568;2023-08-30T06:59:03;7.53;;;5.70;;
6282;SDS011;3174;53.486;9.568;2023-08-30T07:01:31;8.20;;;5.97;;
6282;SDS011;3174;53.486;9.568;2023-08-30T07:04:02;9.00;;;6.43;;
6282;SDS011;3174;53.486;9.568;2023-08-30T07:06:30;9.27;;;6.47;;
6282;SDS011;3174;53.486;9.568;2023-08-30T07:08:58;10.03;;;6.50;;
6282;SDS011;3174;53.486;9.568;2023-08-30T07:11:27;9.03;;;6.50;;
6282;SDS011;3174;53.486;9.568;2023-08-30T07:14:00;9.10;;;6.50;;
6282;SDS011;3174;53.486;9.568;2023-08-30T07:16:28;9.10;;;6.53;;
6282;SDS011;3174;53.486;9.568;2023-08-30T07:18:58;10.37;;;6.80;;
6282;SDS011;3174;53.486;9.568;2023-08-30T07:21:26;3.63;;;2.70;;
6282;SDS011;3174;53.486;9.568;2023-08-30T07:23:54;8.57;;;6.40;;
6282;SDS011;3174;53.486;9.568;2023-08-30T07:26:22;9.83;;;6.80;;
6282;SDS011;3174;53.486;9.568;2023-08-30T07:28:52;9.40;;;6.33;;
6282;SDS011;3174;53.486;9.568;2023-08-30T07:31:20;11.47;;;7.17;;
6282;SDS011;3174;53.486;9.568;2023-08-30T07:33:48;8.20;;;6.00;;
6282;SDS011;3174;53.486;9.568;2023-08-30T07:36:16;9.40;;;6.83;;
6282;SDS011;3174;53.486;9.568;2023-08-30T07:38:44;8.57;;;6.17;;
6282;SDS011;3174;53.486;9.568;2023-08-30T07:41:12;11.27;;;7.30;;
6282;SDS011;3174;53.486;9.568;2023-08-30T07:43:40;9.60;;;6.37;;
6282;SDS011;3174;53.486;9.568;2023-08-30T07:46:09;11.80;;;7.33;;
6282;SDS011;3174;53.486;9.568;2023-08-30T07:48:37;9.07;;;6.47;;
6282;SDS011;3174;53.486;9.568;2023-08-30T07:51:05;10.47;;;7.17;;
6282;SDS011;3174;53.486;9.568;2023-08-30T07:53:33;13.07;;;7.70;;
6282;SDS011;3174;53.486;9.568;2023-08-30T07:56:01;11.47;;;7.67;;
6282;SDS011;3174;53.486;9.568;2023-08-30T07:58:30;9.10;;;6.13;;
6282;SDS011;3174;53.486;9.568;2023-08-30T08:00:58;9.43;;;7.07;;
6282;SDS011;3174;53.486;9.568;2023-08-30T08:03:27;7.03;;;5.13;;
6282;SDS011;3174;53.486;9.568;2023-08-30T08:05:55;7.70;;;4.77;;
6282;SDS011;3174;53.486;9.568;2023-08-30T08:08:26;10.67;;;5.90;;
6282;SDS011;3174;53.486;9.568;2023-08-30T08:10:54;12.00;;;7.13;;
6282;SDS011;3174;53.486;9.568;2023-08-30T08:13:22;7.40;;;6.00;;
6282;SDS011;3174;53.486;9.568;2023-08-30T08:15:50;11.60;;;7.03;;
6282;SDS011;3174;53.486;9.568;2023-08-30T08:18:18;6.20;;;4.37;;
6282;SDS011;3174;53.486;9.568;2023-08-30T08:20:47;8.90;;;6.87;;
6282;SDS011;3174;53.486;9.568;2023-08-30T08:23:15;8.13;;;6.33;;
6282;SDS011;3174;53.486;9.568;2023-08-30T08:25:43;12.67;;;6.93;;
6282;SDS011;3174;53.486;9.568;2023-08-30T08:28:11;5.97;;;2.97;;
6282;SDS011;3174;53.486;9.568;2023-08-30T08:30:39;8.07;;;3.10;;
6282;SDS011;3174;53.486;9.568;2023-08-30T08:33:08;10.57;;;6.07;;
6282;SDS011;3174;53.486;9.568;2023-08-30T08:35:37;11.53;;;6.77;;
6282;SDS011;3174;53.486;9.568;2023-08-30T08:38:07;10.63;;;6.40;;
6282;SDS011;3174;53.486;9.568;2023-08-30T08:40:36;7.67;;;5.53;;
6282;SDS011;3174;53.486;9.568;2023-08-30T08:43:09;9.90;;;6.23;;
6282;SDS011;3174;53.486;9.568;2023-08-30T08:45:38;10.57;;;6.00;;
6282;SDS011;3174;53.486;9.568;2023-08-30T08:48:06;8.93;;;6.23;;
6282;SDS011;3174;53.486;9.568;2023-08-30T08:50:35;8.83;;;5.50;;
6282;SDS011;3174;53.486;9.568;2023-08-30T08:53:03;8.47;;;5.17;;
6282;SDS011;3174;53.486;9.568;2023-08-30T08:55:33;12.03;;;6.23;;
6282;SDS011;3174;53.486;9.568;2023-08-30T08:58:01;5.57;;;3.97;;
6282;SDS011;3174;53.486;9.568;2023-08-30T09:00:30;7.50;;;5.33;;
6282;SDS011;3174;53.486;9.568;2023-08-30T09:02:58;6.80;;;5.23;;
6282;SDS011;3174;53.486;9.568;2023-08-30T09:05:27;7.43;;;5.27;;
6282;SDS011;3174;53.486;9.568;2023-08-30T09:07:55;6.30;;;4.77;;
6282;SDS011;3174;53.486;9.568;2023-08-30T09:10:23;8.00;;;5.20;;
6282;SDS011;3174;53.486;9.568;2023-08-30T09:12:53;9.67;;;5.33;;
6282;SDS011;3174;53.486;9.568;2023-08-30T09:15:21;8.20;;;4.80;;
6282;SDS011;3174;53.486;9.568;2023-08-30T09:17:49;7.33;;;5.40;;
6282;SDS011;3174;53.486;9.568;2023-08-30T09:20:17;6.80;;;4.90;;
6282;SDS011;3174;53.486;9.568;2023-08-30T09:22:47;7.03;;;3.73;;
6282;SDS011;3174;53.486;9.568;2023-08-30T09:25:22;6.80;;;4.37;;
6282;SDS011;3174;53.486;9.568;2023-08-30T09:27:52;6.37;;;4.10;;
6282;SDS011;3174;53.486;9.568;2023-08-30T09:30:24;10.13;;;4.53;;
6282;SDS011;3174;53.486;9.568;2023-08-30T09:32:52;6.20;;;4.10;;
6282;SDS011;3174;53.486;9.568;2023-08-30T09:35:21;5.17;;;4.13;;
6282;SDS011;3174;53.486;9.568;2023-08-30T09:37:49;6.07;;;4.20;;
6282;SDS011;3174;53.486;9.568;2023-08-30T09:40:18;5.13;;;4.07;;
6282;SDS011;3174;53.486;9.568;2023-08-30T09:42:46;5.90;;;4.10;;
6282;SDS011;3174;53.486;9.568;2023-08-30T09:45:35;7.57;;;4.53;;
6282;SDS011;3174;53.486;9.568;2023-08-30T09:48:04;6.47;;;4.40;;
6282;SDS011;3174;53.486;9.568;2023-08-30T09:50:33;5.30;;;4.00;;
6282;SDS011;3174;53.486;9.568;2023-08-30T09:53:04;5.30;;;4.23;;
6282;SDS011;3174;53.486;9.568;2023-08-30T09:55:35;5.67;;;3.97;;
6282;SDS011;3174;53.486;9.568;2023-08-30T09:58:03;9.93;;;4.13;;
6282;SDS011;3174;53.486;9.568;2023-08-30T10:00:32;7.97;;;4.10;;
6282;SDS011;3174;53.486;9.568;2023-08-30T10:03:02;7.90;;;4.27;;
6282;SDS011;3174;53.486;9.568;2023-08-30T10:05:34;7.53;;;3.83;;
6282;SDS011;3174;53.486;9.568;2023-08-30T10:08:03;4.57;;;3.60;;
6282;SDS011;3174;53.486;9.568;2023-08-30T10:10:32;5.33;;;3.73;;
6282;SDS011;3174;53.486;9.568;2023-08-30T10:13:03;6.37;;;4.40;;
6282;SDS011;3174;53.486;9.568;2023-08-30T10:15:38;6.37;;;4.47;;
6282;SDS011;3174;53.486;9.568;2023-08-30T10:18:10;6.47;;;4.00;;
6282;SDS011;3174;53.486;9.568;2023-08-30T10:20:39;6.37;;;4.67;;
6282;SDS011;3174;53.486;9.568;2023-08-30T10:23:07;6.37;;;4.07;;
6282;SDS011;3174;53.486;9.568;2023-08-30T10:25:38;6.53;;;4.53;;
6282;SDS011;3174;53.486;9.568;2023-08-30T10:28:06;5.17;;;3.90;;
6282;SDS011;3174;53.486;9.568;2023-08-30T10:30:36;5.60;;;4.30;;
6282;SDS011;3174;53.486;9.568;2023-08-30T10:33:11;8.73;;;5.13;;
6282;SDS011;3174;53.486;9.568;2023-08-30T10:35:46;9.57;;;4.47;;
6282;SDS011;3174;53.486;9.568;2023-08-30T10:38:24;6.00;;;3.67;;
6282;SDS011;3174;53.486;9.568;2023-08-30T10:40:53;8.30;;;5.07;;
6282;SDS011;3174;53.486;9.568;2023-08-30T10:43:28;5.27;;;3.23;;
6282;SDS011;3174;53.486;9.568;2023-08-30T10:45:59;9.13;;;5.23;;
6282;SDS011;3174;53.486;9.568;2023-08-30T10:48:39;6.70;;;4.30;;
6282;SDS011;3174;53.486;9.568;2023-08-30T10:51:18;7.13;;;5.07;;
6282;SDS011;3174;53.486;9.568;2023-08-30T10:53:57;9.77;;;5.07;;
6282;SDS011;3174;53.486;9.568;2023-08-30T10:56:29;6.67;;;4.57;;
6282;SDS011;3174;53.486;9.568;2023-08-30T10:58:57;7.90;;;4.90;;
6282;SDS011;3174;53.486;9.568;2023-08-30T11:01:25;7.93;;;4.73;;
6282;SDS011;3174;53.486;9.568;2023-08-30T11:03:56;7.33;;;5.07;;
6282;SDS011;3174;53.486;9.568;2023-08-30T11:06:40;6.33;;;4.53;;
6282;SDS011;3174;53.486;9.568;2023-08-30T11:09:09;6.27;;;3.80;;
6282;SDS011;3174;53.486;9.568;2023-08-30T11:11:37;4.13;;;2.90;;
6282;SDS011;3174;53.486;9.568;2023-08-30T11:14:06;7.53;;;4.77;;
6282;SDS011;3174;53.486;9.568;2023-08-30T11:16:35;6.83;;;4.83;;
6282;SDS011;3174;53.486;9.568;2023-08-30T11:19:05;8.53;;;5.00;;
6282;SDS011;3174;53.486;9.568;2023-08-30T11:21:34;7.73;;;4.90;;
6282;SDS011;3174;53.486;9.568;2023-08-30T11:24:04;8.57;;;5.37;;
6282;SDS011;3174;53.486;9.568;2023-08-30T11:26:33;9.67;;;5.63;;
6282;SDS011;3174;53.486;9.568;2023-08-30T11:29:04;10.77;;;5.50;;
6282;SDS011;3174;53.486;9.568;2023-08-30T11:31:32;7.53;;;4.20;;
6282;SDS011;3174;53.486;9.568;2023-08-30T11:34:00;6.97;;;5.10;;
6282;SDS011;3174;53.486;9.568;2023-08-30T11:36:31;5.97;;;4.00;;
6282;SDS011;3174;53.486;9.568;2023-08-30T11:38:59;6.37;;;4.17;;
6282;SDS011;3174;53.486;9.568;2023-08-30T11:41:27;7.90;;;5.30;;
6282;SDS011;3174;53.486;9.568;2023-08-30T11:43:55;5.97;;;3.67;;
6282;SDS011;3174;53.486;9.568;2023-08-30T11:46:26;7.90;;;5.20;;
6282;SDS011;3174;53.486;9.568;2023-08-30T11:48:54;7.47;;;5.33;;
6282;SDS011;3174;53.486;9.568;2023-08-30T11:51:23;7.13;;;4.80;;
6282;SDS011;3174;53.486;9.568;2023-08-30T11:53:52;6.70;;;4.87;;
6282;SDS011;3174;53.486;9.568;2023-08-30T11:56:22;8.63;;;5.23;;
6282;SDS011;3174;53.486;9.568;2023-08-30T11:58:50;7.13;;;4.97;;
6282;SDS011;3174;53.486;9.568;2023-08-30T12:01:18;6.87;;;4.93;;
6282;SDS011;3174;53.486;9.568;2023-08-30T12:03:47;10.00;;;5.73;;
6282;SDS011;3174;53.486;9.568;2023-08-30T12:06:17;7.57;;;5.80;;
6282;SDS011;3174;53.486;9.568;2023-08-30T12:08:45;7.90;;;5.40;;
6282;SDS011;3174;53.486;9.568;2023-08-30T12:11:20;14.07;;;6.10;;
6282;SDS011;3174;53.486;9.568;2023-08-30T12:13:48;8.57;;;5.37;;
6282;SDS011;3174;53.486;9.568;2023-08-30T12:16:17;5.20;;;4.07;;
6282;SDS011;3174;53.486;9.568;2023-08-30T12:18:45;8.17;;;5.77;;
6282;SDS011;3174;53.486;9.568;2023-08-30T12:21:13;10.93;;;6.57;;
6282;SDS011;3174;53.486;9.568;2023-08-30T12:23:41;7.17;;;4.73;;
6282;SDS011;3174;53.486;9.568;2023-08-30T12:26:10;6.73;;;5.30;;
6282;SDS011;3174;53.486;9.568;2023-08-30T12:28:41;3.70;;;2.80;;
6282;SDS011;3174;53.486;9.568;2023-08-30T12:31:11;6.27;;;4.27;;
6282;SDS011;3174;53.486;9.568;2023-08-30T12:33:39;7.90;;;4.90;;
6282;SDS011;3174;53.486;9.568;2023-08-30T12:36:07;6.97;;;3.77;;
6282;SDS011;3174;53.486;9.568;2023-08-30T12:38:37;5.63;;;4.33;;
6282;SDS011;3174;53.486;9.568;2023-08-30T12:41:05;4.10;;;2.93;;
6282;SDS011;3174;53.486;9.568;2023-08-30T12:43:33;6.30;;;4.47;;
6282;SDS011;3174;53.486;9.568;2023-08-30T12:46:03;5.90;;;4.37;;
6282;SDS011;3174;53.486;9.568;2023-08-30T12:48:31;5.40;;;3.70;;
6282;SDS011;3174;53.486;9.568;2023-08-30T12:50:59;5.50;;;3.77;;
6282;SDS011;3174;53.486;9.568;2023-08-30T12:53:27;5.63;;;3.97;;
6282;SDS011;3174;53.486;9.568;2023-08-30T12:55:55;3.67;;;2.47;;
6282;SDS011;3174;53.486;9.568;2023-08-30T12:58:23;6.27;;;3.97;;
6282;SDS011;3174;53.486;9.568;2023-08-30T13:00:51;7.57;;;4.50;;
6282;SDS011;3174;53.486;9.568;2023-08-30T13:03:21;6.13;;;4.23;;
6282;SDS011;3174;53.486;9.568;2023-08-30T13:05:49;5.97;;;4.00;;
6282;SDS011;3174;53.486;9.568;2023-08-30T13:08:17;5.95;;;4.78;;
6282;SDS011;3174;53.486;9.568;2023-08-30T13:10:45;7.50;;;4.50;;
6282;SDS011;3174;53.486;9.568;2023-08-30T13:13:13;9.55;;;4.82;;
6282;SDS011;3174;53.486;9.568;2023-08-30T13:15:42;7.43;;;4.63;;
6282;SDS011;3174;53.486;9.568;2023-08-30T13:18:09;10.97;;;4.93;;
6282;SDS011;3174;53.486;9.568;2023-08-30T13:20:39;6.00;;;4.30;;
6282;SDS011;3174;53.486;9.568;2023-08-30T13:23:07;5.03;;;3.60;;
6282;SDS011;3174;53.486;9.568;2023-08-30T13:25:38;5.87;;;3.80;;
6282;SDS011;3174;53.486;9.568;2023-08-30T13:28:06;5.07;;;3.28;;
6282;SDS011;3174;53.486;9.568;2023-08-30T13:30:34;3.92;;;3.22;;
6282;SDS011;3174;53.486;9.568;2023-08-30T13:33:03;5.73;;;3.40;;
6282;SDS011;3174;53.486;9.568;2023-08-30T13:35:31;4.20;;;3.27;;
6282;SDS011;3174;53.486;9.568;2023-08-30T13:38:00;9.37;;;4.13;;
6282;SDS011;3174;53.486;9.568;2023-08-30T13:40:29;3.53;;;2.70;;
6282;SDS011;3174;53.486;9.568;2023-08-30T13:42:57;3.87;;;2.90;;
6282;SDS011;3174;53.486;9.568;2023-08-30T13:45:24;3.60;;;2.97;;
6282;SDS011;3174;53.486;9.568;2023-08-30T13:47:52;3.55;;;2.85;;
6282;SDS011;3174;53.486;9.568;2023-08-30T13:50:21;4.47;;;2.80;;
6282;SDS011;3174;53.486;9.568;2023-08-30T13:52:49;3.53;;;2.93;;
6282;SDS011;3174;53.486;9.568;2023-08-30T13:55:19;3.67;;;2.60;;
6282;SDS011;3174;53.486;9.568;2023-08-30T13:57:47;4.07;;;2.97;;
6282;SDS011;3174;53.486;9.568;2023-08-30T14:00:15;4.63;;;3.53;;
6282;SDS011;3174;53.486;9.568;2023-08-30T14:02:43;5.40;;;3.10;;
6282;SDS011;3174;53.486;9.568;2023-08-30T14:05:11;7.57;;;3.10;;
6282;SDS011;3174;53.486;9.568;2023-08-30T14:07:39;6.18;;;3.22;;
6282;SDS011;3174;53.486;9.568;2023-08-30T14:10:07;5.10;;;2.97;;
6282;SDS011;3174;53.486;9.568;2023-08-30T14:12:39;3.70;;;3.03;;
6282;SDS011;3174;53.486;9.568;2023-08-30T14:15:07;4.13;;;3.20;;
6282;SDS011;3174;53.486;9.568;2023-08-30T14:17:35;4.80;;;3.73;;
6282;SDS011;3174;53.486;9.568;2023-08-30T14:20:04;5.03;;;3.60;;
6282;SDS011;3174;53.486;9.568;2023-08-30T14:22:33;4.43;;;2.37;;
6282;SDS011;3174;53.486;9.568;2023-08-30T14:25:01;4.77;;;3.40;;
6282;SDS011;3174;53.486;9.568;2023-08-30T14:27:39;5.00;;;3.67;;
6282;SDS011;3174;53.486;9.568;2023-08-30T14:30:07;5.27;;;3.70;;
6282;SDS011;3174;53.486;9.568;2023-08-30T14:32:36;4.37;;;3.33;;
6282;SDS011;3174;53.486;9.568;2023-08-30T14:35:04;4.63;;;3.60;;
6282;SDS011;3174;53.486;9.568;2023-08-30T14:37:32;3.63;;;2.63;;
6282;SDS011;3174;53.486;9.568;2023-08-30T14:40:02;7.37;;;3.40;;
6282;SDS011;3174;53.486;9.568;2023-08-30T14:42:31;4.27;;;2.90;;
6282;SDS011;3174;53.486;9.568;2023-08-30T14:45:00;3.40;;;2.30;;
6282;SDS011;3174;53.486;9.568;2023-08-30T14:47:29;5.43;;;3.90;;
6282;SDS011;3174;53.486;9.568;2023-08-30T14:49:58;4.73;;;2.97;;
6282;SDS011;3174;53.486;9.568;2023-08-30T14:52:27;3.63;;;2.73;;
6282;SDS011;3174;53.486;9.568;2023-08-30T14:54:55;4.50;;;3.30;;
6282;SDS011;3174;53.486;9.568;2023-08-30T14:57:23;4.63;;;3.27;;
6282;SDS011;3174;53.486;9.568;2023-08-30T14:59:53;5.90;;;3.33;;
6282;SDS011;3174;53.486;9.568;2023-08-30T15:02:22;7.70;;;3.77;;
6282;SDS011;3174;53.486;9.568;2023-08-30T15:04:50;3.37;;;2.80;;
6282;SDS011;3174;53.486;9.568;2023-08-30T15:07:18;3.57;;;2.27;;
6282;SDS011;3174;53.486;9.568;2023-08-30T15:09:46;3.27;;;2.53;;
6282;SDS011;3174;53.486;9.568;2023-08-30T15:12:14;5.80;;;4.40;;
6282;SDS011;3174;53.486;9.568;2023-08-30T15:14:42;5.13;;;3.60;;
6282;SDS011;3174;53.486;9.568;2023-08-30T15:17:10;7.00;;;3.63;;
6282;SDS011;3174;53.486;9.568;2023-08-30T15:19:41;5.27;;;2.70;;
6282;SDS011;3174;53.486;9.568;2023-08-30T15:22:09;6.23;;;3.27;;
6282;SDS011;3174;53.486;9.568;2023-08-30T15:24:37;7.83;;;4.27;;
6282;SDS011;3174;53.486;9.568;2023-08-30T15:27:05;7.60;;;4.60;;